createdAt,value
2023-03-03T00:00:17.149Z,0.00
2023-03-03T00:05:17.034Z,0.00
2023-03-03T00:10:16.968Z,0.00
2023-03-03T00:15:16.941Z,0.00
2023-03-03T00:20:16.868Z,0.00
2023-03-03T00:25:16.822Z,0.00
2023-03-03T00:30:16.736Z,0.00
2023-03-03T00:35:16.732Z,0.00
2023-03-03T00:40:16.696Z,0.00
2023-03-03T00:45:16.570Z,0.00
2023-03-03T00:50:16.549Z,0.00
2023-03-03T00:55:16.480Z,0.00
2023-03-03T01:00:16.457Z,0.00
2023-03-03T01:05:16.376Z,0.00
2023-03-03T01:10:16.334Z,0.00
2023-03-03T01:15:16.290Z,0.00
2023-03-03T01:20:16.194Z,0.00
2023-03-03T01:25:16.174Z,0.00
2023-03-03T01:30:16.122Z,0.00
2023-03-03T01:35:16.078Z,0.00
2023-03-03T01:40:15.988Z,0.00
2023-03-03T01:45:15.977Z,0.00
2023-03-03T01:50:15.966Z,0.00
2023-03-03T01:55:15.888Z,0.00
2023-03-03T02:00:15.823Z,0.00
2023-03-03T02:05:15.710Z,0.00
2023-03-03T02:10:15.675Z,0.00
2023-03-03T02:15:15.632Z,0.00
2023-03-03T02:20:15.590Z,0.00
2023-03-03T02:25:15.518Z,0.00
2023-03-03T02:30:15.465Z,0.00
2023-03-03T02:35:15.407Z,0.00
2023-03-03T02:40:15.332Z,0.00
2023-03-03T02:45:15.385Z,0.00
2023-03-03T02:50:15.290Z,0.00
2023-03-03T02:55:15.276Z,0.00
2023-03-03T03:00:15.159Z,0.00
2023-03-03T03:05:15.040Z,0.00
2023-03-03T03:10:15.067Z,0.00
2023-03-03T03:15:23.832Z,0.00
2023-03-03T03:20:14.900Z,0.00
2023-03-03T03:25:14.863Z,0.00
2023-03-03T03:30:14.814Z,0.00
2023-03-03T03:35:14.765Z,0.00
2023-03-03T03:40:14.710Z,0.00
2023-03-03T03:45:14.673Z,0.00
2023-03-03T03:50:14.646Z,0.00
2023-03-03T03:55:14.570Z,0.00
2023-03-03T04:00:14.611Z,0.00
2023-03-03T04:05:14.538Z,0.00
2023-03-03T04:10:14.473Z,0.00
2023-03-03T04:15:14.404Z,0.00
2023-03-03T04:20:14.316Z,0.00
2023-03-03T04:25:14.261Z,0.00
2023-03-03T04:30:14.164Z,0.00
2023-03-03T04:35:14.131Z,0.00
2023-03-03T04:40:14.204Z,0.00
2023-03-03T04:45:14.110Z,0.00
2023-03-03T04:50:14.017Z,0.00
2023-03-03T04:55:13.932Z,0.00
2023-03-03T05:00:13.892Z,0.00
2023-03-03T05:05:13.824Z,0.00
2023-03-03T05:10:13.744Z,0.00
2023-03-03T05:15:13.694Z,0.00
2023-03-03T05:20:13.651Z,0.00
2023-03-03T05:25:13.588Z,0.00
2023-03-03T05:30:13.529Z,0.00
2023-03-03T05:35:14.569Z,0.00
2023-03-03T05:40:13.385Z,0.00
2023-03-03T05:45:13.424Z,0.00
2023-03-03T05:50:13.349Z,0.00
2023-03-03T05:55:13.270Z,0.00
2023-03-03T06:00:13.231Z,0.00
2023-03-03T06:05:13.214Z,0.00
2023-03-03T06:10:13.079Z,0.00
2023-03-03T06:15:13.083Z,5.62
2023-03-03T06:20:12.987Z,5.62
2023-03-03T06:25:13.180Z,11.25
2023-03-03T06:30:12.986Z,11.25
2023-03-03T06:35:12.883Z,16.88
2023-03-03T06:40:12.803Z,22.50
2023-03-03T06:45:12.761Z,28.12
2023-03-03T06:50:12.682Z,33.75
2023-03-03T06:55:12.582Z,45.00
2023-03-03T07:00:12.560Z,50.62
2023-03-03T07:05:12.620Z,56.25
2023-03-03T07:10:12.465Z,61.88
2023-03-03T07:15:12.411Z,67.50
2023-03-03T07:20:12.352Z,73.12
2023-03-03T07:25:12.307Z,78.75
2023-03-03T07:30:12.229Z,90.00
2023-03-03T07:35:12.257Z,101.25
2023-03-03T07:40:12.149Z,101.25
2023-03-03T07:45:12.115Z,106.88
2023-03-03T07:50:12.017Z,118.12
2023-03-03T07:55:11.981Z,123.75
2023-03-03T08:00:11.917Z,135.00
2023-03-03T08:05:12.083Z,140.62
2023-03-03T08:10:11.866Z,151.88
2023-03-03T08:15:11.761Z,157.50
2023-03-03T08:20:11.676Z,157.50
2023-03-03T08:25:11.791Z,174.38
2023-03-03T08:30:11.654Z,185.62
2023-03-03T08:35:11.516Z,185.62
2023-03-03T08:40:11.547Z,174.38
2023-03-03T08:45:11.521Z,202.50
2023-03-03T08:50:11.341Z,202.50
2023-03-03T08:55:11.342Z,196.88
2023-03-03T09:00:11.227Z,208.12
2023-03-03T09:05:11.198Z,219.38
2023-03-03T09:10:11.134Z,219.38
2023-03-03T09:15:11.067Z,225.00
2023-03-03T09:20:19.893Z,270.00
2023-03-03T09:25:10.926Z,270.00
2023-03-03T09:30:10.921Z,309.38
2023-03-03T09:35:10.847Z,405.00
2023-03-03T09:40:10.782Z,354.38
2023-03-03T09:45:10.748Z,360.00
2023-03-03T09:50:10.696Z,360.00
2023-03-03T09:55:10.622Z,444.38
2023-03-03T10:00:10.545Z,528.75
2023-03-03T10:05:11.995Z,523.12
2023-03-03T10:10:10.465Z,556.88
2023-03-03T10:15:10.397Z,495.00
2023-03-03T10:20:10.362Z,478.12
2023-03-03T10:25:10.318Z,461.25
2023-03-03T10:30:10.284Z,438.75
2023-03-03T10:35:10.340Z,455.62
2023-03-03T10:40:10.167Z,461.25
2023-03-03T10:45:14.280Z,511.88
2023-03-03T10:50:10.102Z,568.12
2023-03-03T10:55:10.015Z,545.62
2023-03-03T11:00:09.963Z,618.75
2023-03-03T11:05:09.874Z,596.25
2023-03-03T11:10:09.779Z,590.62
2023-03-03T11:15:09.831Z,641.25
2023-03-03T11:20:09.722Z,646.88
2023-03-03T11:25:09.662Z,635.62
2023-03-03T11:30:09.574Z,646.88
2023-03-03T11:35:09.534Z,590.62
2023-03-03T11:40:09.468Z,585.00
2023-03-03T11:45:09.420Z,540.00
2023-03-03T11:50:09.409Z,551.25
2023-03-03T11:55:09.321Z,573.75
2023-03-03T12:00:09.287Z,630.00
2023-03-03T12:05:09.169Z,680.62
2023-03-03T12:10:09.172Z,635.62
2023-03-03T12:15:09.092Z,691.88
2023-03-03T12:20:08.988Z,703.12
2023-03-03T12:25:09.004Z,753.75
2023-03-03T12:30:08.930Z,793.12
2023-03-03T12:35:08.927Z,855.00
2023-03-03T12:40:08.879Z,781.88
2023-03-03T12:45:08.773Z,798.75
2023-03-03T12:50:08.796Z,832.50
2023-03-03T12:55:08.654Z,731.25
2023-03-03T13:00:08.608Z,714.38
2023-03-03T13:05:08.557Z,703.12
2023-03-03T13:10:08.468Z,714.38
2023-03-03T13:15:08.376Z,652.50
2023-03-03T13:20:08.381Z,686.25
2023-03-03T13:25:08.296Z,725.62
2023-03-03T13:30:08.288Z,697.50
2023-03-03T13:35:08.185Z,680.62
2023-03-03T13:40:08.162Z,669.38
2023-03-03T13:45:08.136Z,770.62
2023-03-03T13:50:08.039Z,635.62
2023-03-03T13:55:07.986Z,781.88
2023-03-03T14:00:07.894Z,810.00
2023-03-03T14:05:07.883Z,843.75
2023-03-03T14:10:07.789Z,551.25
2023-03-03T14:15:07.874Z,534.38
2023-03-03T14:20:07.660Z,590.62
2023-03-03T14:25:07.625Z,590.62
2023-03-03T14:30:07.582Z,556.88
2023-03-03T14:35:07.549Z,427.50
2023-03-03T14:40:07.449Z,427.50
2023-03-03T14:45:14.568Z,393.75
2023-03-03T14:50:08.348Z,360.00
2023-03-03T14:55:07.257Z,343.12
2023-03-03T15:00:07.263Z,331.88
2023-03-03T15:05:07.253Z,298.12
2023-03-03T15:10:07.115Z,292.50
2023-03-03T15:15:09.475Z,292.50
2023-03-03T15:20:15.996Z,286.88
2023-03-03T15:25:07.113Z,281.25
2023-03-03T15:30:07.015Z,270.00
2023-03-03T15:35:07.053Z,270.00
2023-03-03T15:40:09.040Z,258.75
2023-03-03T15:45:06.821Z,253.12
2023-03-03T15:50:06.893Z,241.88
2023-03-03T15:55:06.838Z,230.62
2023-03-03T16:00:06.701Z,225.00
2023-03-03T16:05:06.556Z,219.38
2023-03-03T16:10:06.617Z,213.75
2023-03-03T16:15:06.542Z,202.50
2023-03-03T16:20:06.479Z,191.25
2023-03-03T16:25:06.407Z,174.38
2023-03-03T16:30:06.512Z,157.50
2023-03-03T16:35:06.318Z,140.62
2023-03-03T16:40:06.393Z,123.75
2023-03-03T16:45:06.335Z,106.88
2023-03-03T16:50:07.113Z,90.00
2023-03-03T16:55:06.108Z,73.12
2023-03-03T17:00:07.059Z,56.25
2023-03-03T17:05:06.063Z,39.38
2023-03-03T17:10:05.851Z,28.12
2023-03-03T17:15:05.832Z,16.88
2023-03-03T17:20:05.746Z,11.25
2023-03-03T17:25:05.836Z,5.62
2023-03-03T17:30:05.635Z,0.00
2023-03-03T17:35:05.590Z,0.00
2023-03-03T17:40:05.557Z,0.00
2023-03-03T17:45:05.460Z,0.00
2023-03-03T17:50:05.396Z,0.00
2023-03-03T17:55:05.451Z,0.00
2023-03-03T18:00:05.298Z,0.00
2023-03-03T18:05:05.217Z,0.00
2023-03-03T18:10:05.266Z,0.00
2023-03-03T18:15:05.133Z,0.00
2023-03-03T18:20:05.085Z,0.00
2023-03-03T18:25:05.041Z,0.00
2023-03-03T18:30:05.128Z,0.00
2023-03-03T18:35:05.997Z,0.00
2023-03-03T18:40:04.913Z,0.00
2023-03-03T18:45:04.883Z,0.00
2023-03-03T18:50:04.787Z,0.00
2023-03-03T18:55:04.729Z,0.00
2023-03-03T19:00:04.713Z,0.00
2023-03-03T19:05:04.727Z,0.00
2023-03-03T19:10:04.581Z,0.00
2023-03-03T19:15:04.561Z,0.00
2023-03-03T19:20:04.474Z,0.00
2023-03-03T19:25:04.417Z,0.00
2023-03-03T19:30:04.320Z,0.00
2023-03-03T19:35:04.305Z,0.00
2023-03-03T19:40:04.677Z,0.00
2023-03-03T19:45:04.364Z,0.00
2023-03-03T19:50:04.226Z,0.00
2023-03-03T19:55:04.234Z,0.00
2023-03-03T20:00:04.220Z,0.00
2023-03-03T20:05:04.159Z,0.00
2023-03-03T20:10:03.927Z,0.00
2023-03-03T20:15:03.893Z,0.00
2023-03-03T20:20:03.828Z,0.00
2023-03-03T20:25:03.786Z,0.00
2023-03-03T20:30:03.702Z,0.00
2023-03-03T20:35:03.676Z,0.00
2023-03-03T20:40:03.609Z,0.00
2023-03-03T20:45:03.621Z,0.00
2023-03-03T20:50:03.602Z,0.00
2023-03-03T20:55:03.602Z,0.00
2023-03-03T21:00:03.360Z,0.00
2023-03-03T21:05:03.403Z,0.00
2023-03-03T21:10:03.216Z,0.00
2023-03-03T21:15:03.202Z,0.00
2023-03-03T21:20:11.969Z,0.00
2023-03-03T21:25:03.221Z,0.00
2023-03-03T21:30:03.195Z,0.00
2023-03-03T21:35:02.948Z,0.00
2023-03-03T21:40:02.899Z,0.00
2023-03-03T21:45:02.932Z,0.00
2023-03-03T21:50:02.782Z,0.00
2023-03-03T21:55:02.715Z,0.00
2023-03-03T22:00:02.664Z,0.00
2023-03-03T22:05:02.791Z,0.00
2023-03-03T22:10:02.590Z,0.00
2023-03-03T22:15:02.501Z,0.00
2023-03-03T22:20:02.471Z,0.00
2023-03-03T22:25:02.413Z,0.00
2023-03-03T22:30:02.343Z,0.00
2023-03-03T22:35:02.430Z,0.00
2023-03-03T22:40:02.231Z,0.00
2023-03-03T22:45:02.209Z,0.00
2023-03-03T22:50:02.213Z,0.00
2023-03-03T22:55:02.108Z,0.00
2023-03-03T23:00:02.080Z,0.00
2023-03-03T23:05:02.046Z,0.00
2023-03-03T23:10:01.933Z,0.00
2023-03-03T23:15:01.890Z,0.00
2023-03-03T23:20:01.804Z,0.00
2023-03-03T23:25:01.746Z,0.00
2023-03-03T23:30:01.715Z,0.00
2023-03-03T23:35:01.660Z,0.00
2023-03-03T23:40:01.584Z,0.00
2023-03-03T23:45:01.565Z,0.00
2023-03-03T23:50:01.465Z,0.00
2023-03-03T23:55:01.428Z,0.00
